1967 Tropical Cyclone JACKIE:LAURA (1967096S10096)


IBTrACS version v04r00. Visit IBTrACS website for data access.
Please direct all questions to the IBTrACS Q and A forum

Storm track - Intensity - Wind Radii - Intensity Data - Source Data - All data

Summary Information

Storm ID 1967096S10096
Start Apr 5 18Z
Max Intensity 75 kt (Apr 9 06Z), 970 mb (Apr 9 00Z)
End Apr 15 01Z
ATCF IDs ,SH281967,SH291967
Track status Best track data.

Storm track plot

Map of storm track

Intensity plots

Map of storm track

Radial wind information

No radial wind information for this storm


Position and Intensity Table

BASIN ISO_TIME_________ NATURE LAT LON WMO PRES USA WIND BOM PRES DS824 WIND TD9636 WIND NEUMANN WIND NEUMANN PRES
degrees north degrees east mb kts mb kts kts kts mb
SI 1967-04-05 18:00:00 NR -9.80 96.00
SI 21:00:00 NR -9.85 95.81
SI 22:00:00 NR -9.90 95.81 30
SI 1967-04-06 00:00:00 TS -9.99 95.70 25 28
SI 01:00:00 TS -10.03 95.67 1003 1003 24 27
SI 03:00:00 TS -10.08 95.50 1003 22 25
SI 04:00:00 TS -10.11 95.41 1003 1003 21 25
SI 06:00:00 TS -10.17 95.23 1003 20 23 25 1003
SI 09:00:00 TS -10.29 94.92 1003 20 20 25 1003
SI 10:00:00 TS -10.33 94.83 1003 1003 20 20 25 1003
SI 12:00:00 TS -10.41 94.60 1002 20 22 25 1003
SI 15:00:00 TS -10.52 94.24 1002 25 26 25 1002
SI 18:00:00 TS -10.64 93.86 1002 30 30 25 1002
SI 19:00:00 TS -10.68 93.74 1002 1002 30 31 25 1002
SI 21:00:00 TS -10.77 93.51 1002 32 33 25 1002
SI 22:00:00 TS -10.81 93.39 1002 1002 33 35 25 1002
SI 1967-04-07 00:00:00 TS -10.89 93.14 1001 35 31 25 1002
SI 01:00:00 TS -10.93 93.01 1001 1001 32 30 25 1001
SI 03:00:00 TS -11.00 92.74 1000 27 26 27 1001
SI 04:00:00 TS -11.05 92.60 1000 1000 25 25 28 1000
SI 06:00:00 TS -11.14 92.32 999 20 21 30 1000
SI 07:00:00 TS -11.19 92.19 999 999 19 20 30 999
SI 09:00:00 TS -11.29 91.91 997 17 16 32 998
SI 10:00:00 TS -11.34 91.77 997 997 16 15 33 998
SI 12:00:00 TS -11.44 91.49 996 15 16 35 997
SI 15:00:00 TS -11.58 91.06 995 20 19 37 996
SI 16:00:00 TS -11.63 90.92 995 995 21 20 38 995
SI 18:00:00 TS -11.72 90.64 993 25 21 40 995
SI 21:00:00 TS -11.86 90.25 992 25 24 42 993
SI 22:00:00 TS -11.91 90.13 992 992 25 25 43 993
SI 1967-04-08 00:00:00 TS -12.01 89.88 990 25 22 45 992
SI 01:00:00 TS -12.06 89.75 990 990 23 21 45 991
SI 03:00:00 TS -12.18 89.48 988 20 18 47 990
SI 04:00:00 TS -12.24 89.35 988 988 18 17 48 989
SI 06:00:00 TS -12.39 89.09 986 15 14 50 988
SI 07:00:00 TS -12.46 88.97 986 986 14 13 50 987
SI 09:00:00 TS -12.62 88.73 983 12 11 52 985
SI 10:00:00 TS -12.70 88.62 983 983 11 10 53 984
SI 12:00:00 TS -12.87 88.39 981 10 10 55 983
SI 15:00:00 TS -13.12 88.05 978 12 12 60 980
SI 16:00:00 TS -13.21 87.93 978 978 13 12 61 979
SI 18:00:00 TS -13.40 87.69 976 15 13 65 978
SI 19:00:00 TS -13.51 87.56 976 976 15 13 65 977
SI 21:00:00 TS -13.73 87.29 973 15 14 67 975
SI 22:00:00 TS -13.85 87.16 973 973 15 15 68 974
SI 1967-04-09 00:00:00 TS -14.06 86.91 970 15 15 70 973
SI 01:00:00 TS -14.15 86.80 970 970 15 16 70 972
SI 03:00:00 TS -14.34 86.58 970 17 17 72 972
SI 04:00:00 TS -14.43 86.48 971 971 18 17 73 971
SI 06:00:00 TS -14.61 86.28 972 20 18 75 971
SI 07:00:00 TS -14.71 86.18 973 973 20 18 74 971
SI 09:00:00 TS -14.88 85.99 974 20 19 72 973
SI 10:00:00 TS -14.96 85.90 975 975 20 20 71 973
SI 12:00:00 TS -15.13 85.72 976 20 20 70 975
SI 15:00:00 TS -15.38 85.46 978 20 20 67 977
SI 16:00:00 TS -15.46 85.37 979 979 20 20 66 977
SI 18:00:00 TS -15.63 85.22 980 20 20 65 979
SI 19:00:00 TS -15.72 85.14 981 981 20 20 63 979
SI 21:00:00 TS -15.89 84.99 982 20 20 60 981
SI 22:00:00 TS -15.97 84.92 983 983 20 20 58 981
SI 1967-04-10 00:00:00 TS -16.13 84.81 984 20 23 55 983
SI 01:00:00 TS -16.21 84.77 985 985 22 25 55 983
SI 03:00:00 TS -16.37 84.73 985 27 28 55 984
SI 04:00:00 TS -16.46 84.72 985 985 29 30 55 984
SI 06:00:00 TS -16.65 84.72 985 35 33 55 985
SI 07:00:00 TS -16.76 84.71 985 985 35 35 55 985
SI 09:00:00 TS -16.99 84.70 985 37 38 55 985
SI 10:00:00 TS -17.12 84.70 985 985 38 40 55 985
SI 12:00:00 TS -17.38 84.70 985 40 37 55 985
SI 15:00:00 TS -17.82 84.71 985 35 33 55 985
SI 18:00:00 TS -18.26 84.76 985 30 29 55 985
SI 19:00:00 TS -18.39 84.78 985 985 29 28 55 985
SI 21:00:00 TS -18.64 84.83 985 27 26 55 985
SI 22:00:00 TS -18.76 84.87 985 985 26 25 55 985
SI 1967-04-11 00:00:00 TS -18.99 84.97 985 25 25 55 985
SI 03:00:00 TS -19.33 85.20 985 25 25 55 985
SI 04:00:00 TS -19.44 85.29 985 985 25 25 55 985
SI 06:00:00 TS -19.68 85.48 985 25 25 55 985
SI 09:00:00 TS -20.07 85.82 985 27 25 55 985
SI 10:00:00 TS -20.21 85.94 985 28 25 55 985
SI 12:00:00 TS -20.48 86.17 985 30 29 55 986
SI 15:00:00 TS -20.89 86.49 985 37 35 55 986
SI 16:00:00 TS -21.03 86.61 986 986 39 37 55 986
SI 18:00:00 TS -21.31 86.86 986 45 41 55 986
SI 19:00:00 TS -21.43 86.99 986 986 45 43 55 986
SI 21:00:00 TS -21.68 87.28 986 47 47 55 986
SI 22:00:00 TS -21.81 87.45 986 986 48 50 55 986
SI 1967-04-12 00:00:00 TS -22.09 87.83 986 50 44 55 986
SI 01:00:00 TS -22.25 88.07 987 987 46 42 54 986
SI 03:00:00 TS -22.61 88.65 987 40 37 52 987
SI 04:00:00 TS -22.81 88.98 988 988 36 35 51 987
SI 06:00:00 TS -23.23 89.66 988 30 29 50 988
SI 07:00:00 TS -23.44 90.01 989 989 28 27 49 988
SI 09:00:00 TS -23.88 90.75 989 25 22 47 989
SI 10:00:00 TS -24.10 91.14 990 990 23 20 46 989
SI 12:00:00 TS -24.56 91.89 990 20 19 45 990
SI 15:00:00 TS -25.28 93.13 991 17 17 45 991
SI 16:00:00 TS -25.55 93.66 992 992 16 17 45 991
SI 18:00:00 TS -26.08 94.62 992 15 16 45 992
SI 19:00:00 TS -26.38 95.22 993 993 15 16 44 992
SI 21:00:00 TS -26.87 96.04 993 15 15 42 993
SI 22:00:00 TS -27.12 96.46 994 994 15 15 41 993
SI 1967-04-13 00:00:00 TS -27.62 97.31 15 994 15 18 40 994
SI 01:00:00 TS -27.87 97.74 995 17 995 17 20 40 994
SI 03:00:00 TS -28.33 98.58 22 995 22 23 40 994
SI 04:00:00 TS -28.55 98.99 995 24 995 24 25 40 994
SI 06:00:00 TS -29.01 99.82 30 995 30 28 40 995
SI 07:00:00 TS -29.24 100.22 995 30 995 30 30 40 995
SI 09:00:00 TS -29.69 101.01 32 995 32 33 40 995
SI 10:00:00 TS -29.91 101.39 995 33 995 33 35 40 995
SI 12:00:00 TS -30.34 102.14 35 995 35 33 40 995
SI 15:00:00 TS -30.94 103.21 30 995 30 30 40 995
SI 16:00:00 TS -31.14 103.57 995 28 995 28 30 40 995
SI 18:00:00 TS -31.53 104.29 25 995 25 28 40 995
SI 19:00:00 TS -31.73 104.65 995 25 995 25 27 40 995
SI 21:00:00 TS -32.13 105.40 25 995 25 25 40 995
SI 22:00:00 TS -32.33 105.78 995 25 995 25 25 40 995
SI 1967-04-14 00:00:00 TS -32.74 106.58 25 995 25 26 40 995
SI 01:00:00 TS -32.95 107.00 995 25 995 25 27 40 995
SI 03:00:00 TS -33.39 107.91 27 995 27 29 40 995
SI 04:00:00 TS -33.62 108.38 995 28 995 28 30 40 995
SI 06:00:00 TS -34.07 109.34 30 995 30 31 40 995
SI 07:00:00 TS -34.29 109.83 996 30 996 30 32 39 995
SI 09:00:00 TS -34.72 110.82 32 996 32 34 37 995
SI 10:00:00 TS -34.93 111.32 996 33 996 33 35 36 995
SI 12:00:00 TS -35.34 112.33 35 996 35 35 35 996
SI 15:00:00 TS -35.94 113.81 35 996 35 35 35 996
SI 16:00:00 TS -36.13 114.30 996 35 996 35 35 35 996
SI 18:00:00 TS -36.52 115.27 35 996 35 35 35 996
SI 19:00:00 TS -36.70 115.73 996 996 35 35 996
SI 21:00:00 TS -37.10 116.75 996 35 35 996
SI 22:00:00 TS -37.30 117.25 997 997 35 35 996
SI 1967-04-15 00:00:00 TS -37.70 118.25 997 35 997
SI 01:00:00 NR -38.00 119.00 997 997

Source Information

Agency Information
USA bsh281967.txt::bsh291967.txt
TOKYO
CMA
HKO
NEWDELHI
REUNION
BOM IDCKMSTM0S.csv:Line=4831:LAURA
NADI
WELLINGTON
DS824 s_hem.dat:1036:29S
TD9636 cons_worldwide_trop_cyclone_18710101-19891231-006:Line=7789
TD9635
NEUMANN tracks.sh:Storm=196:JACKIE/LAURA:BSH2967:BM561
MLC

All available IBTrACS Data

SEASON BASIN SUBBASIN ISO_TIME_________ NATURE LAT LON WMO PRES WMO AGENCY DIST2LAND LANDFALL IFLAG USA AGENCY USA ATCF_ID USA LAT USA LON USA WIND USA SSHS BOM LAT BOM LON BOM PRES DS824 LAT DS824 LON DS824 STAGE DS824 WIND TD9636 LAT TD9636 LON TD9636 STAGE TD9636 WIND NEUMANN LAT NEUMANN LON NEUMANN CLASS NEUMANN WIND NEUMANN PRES STORM SPEED STORM DIR
Year degrees north degrees east mb km km degrees north degrees east kts 1 degrees north degrees east mb degrees north degrees east kts degrees north degrees east kts degrees north degrees east kts mb kts degrees
1967 SI WA 1967-04-05 18:00:00 NR -9.80 96.00 952 952 O_____________ jtwc_sh SH281967 -9.80 96.00 -1 4 255
1967 SI WA 21:00:00 NR -9.85 95.81 975 975 P_____________ SH281967 -9.85 95.81 -1 3 242
1967 SI WA 22:00:00 NR -9.90 95.81 975 975 P_________O___ SH281967 -9.87 95.74 -1 -10.00 96.00 1 30 4 217
1967 SI WA 1967-04-06 00:00:00 TS -9.99 95.70 991 991 O________OP___ jtwc_sh SH281967 -9.90 95.60 -1 -10.10 95.80 TC 25 -10.06 95.81 1 28 4 226
1967 SI WA 01:00:00 TS -10.03 95.67 1003 bom 991 991 P_____O__PP___ SH281967 -9.92 95.53 -1 -10.00 96.00 1003 -10.11 95.70 TC 24 -10.09 95.71 1 27 4 245
1967 SI WA 03:00:00 TS -10.08 95.50 1011 1011 P_____P__PP___ SH281967 -9.95 95.36 -1 -10.06 95.73 1003 -10.13 95.50 TC 22 -10.16 95.51 1 25 5 253
1967 SI WA 04:00:00 TS -10.11 95.41 1003 bom 1016 1016 P_____O__PP___ SH281967 -9.97 95.28 -1 -10.10 95.60 1003 -10.14 95.40 TC 21 -10.19 95.42 1 25 6 252
1967 SI WA 06:00:00 TS -10.17 95.23 1035 1035 O_____P__OP_O_ jtwc_sh SH281967 -10.00 95.10 -1 -10.19 95.33 1003 -10.20 95.20 TC 20 -10.26 95.21 1 23 -10.10 95.60 TC 25 1003 6 250
1967 SI WA 09:00:00 TS -10.29 94.92 1059 1059 P_____P__PP_P_ SH281967 -10.05 94.81 -1 -10.35 94.93 1003 -10.34 94.91 TC 20 -10.36 94.91 1 20 -10.25 95.22 TC 25 1003 6 248
1967 SI WA 10:00:00 TS -10.33 94.83 1003 bom 1064 1064 P_____O__PO_P_ SH281967 -10.07 94.71 -1 -10.40 94.80 1003 -10.40 94.81 TC 20 -10.40 94.80 1 20 -10.30 95.09 TC 25 1003 7 248
1967 SI WA 12:00:00 TS -10.41 94.60 1084 1084 O_____P__OP_O_ jtwc_sh SH281967 -10.10 94.50 -1 -10.50 94.54 1002 -10.50 94.60 TC 20 -10.48 94.58 1 22 -10.40 94.80 TC 25 1003 7 251
1967 SI WA 15:00:00 TS -10.52 94.24 1114 1114 P_____P__PP_P_ SH281967 -10.14 94.16 -1 -10.64 94.16 1002 -10.60 94.26 TC 25 -10.60 94.25 1 26 -10.56 94.33 TC 25 1002 8 253
1967 SI WA 18:00:00 TS -10.64 93.86 1140 1140 O_____P__OP_O_ jtwc_sh SH281967 -10.20 93.80 -1 -10.76 93.81 1002 -10.70 93.90 TC 30 -10.73 93.89 1 30 -10.70 93.90 TC 25 1002 8 252
1967 SI WA 19:00:00 TS -10.68 93.74 1002 bom 1160 1160 P_____O__PP_P_ SH281967 -10.22 93.67 -1 -10.80 93.70 1002 -10.75 93.77 TC 30 -10.77 93.77 1 31 -10.74 93.80 TC 25 1002 7 250
1967 SI WA 21:00:00 TS -10.77 93.51 1181 1181 P_____P__PP_P_ SH281967 -10.28 93.41 -1 -10.87 93.51 1002 -10.85 93.51 TC 32 -10.86 93.53 1 33 -10.81 93.64 TC 25 1002 7 250
1967 SI WA 22:00:00 TS -10.81 93.39 1002 bom 1187 1187 P_____O__PO_P_ SH281967 -10.31 93.28 -1 -10.90 93.40 1002 -10.90 93.37 TC 33 -10.90 93.40 2 35 -10.84 93.57 TC 25 1002 8 251
1967 SI WA 1967-04-07 00:00:00 TS -10.89 93.14 1213 1213 O_____P__OP_O_ jtwc_sh SH281967 -10.40 93.00 -1 -10.97 93.14 1001 -11.00 93.10 TC 35 -10.98 93.14 2 31 -10.90 93.40 TC 25 1002 8 253
1967 SI WA 01:00:00 TS -10.93 93.01 1001 bom 1219 1219 P_____O__PP_P_ SH281967 -10.45 92.87 -1 -11.00 93.00 1001 -11.04 92.96 TC 32 -11.02 93.01 2 30 -10.93 93.28 TC 25 1001 8 254
1967 SI WA 03:00:00 TS -11.00 92.74 1247 1247 P_____P__PP_P_ SH281967 -10.58 92.59 -1 -11.06 92.73 1000 -11.10 92.69 TC 27 -11.11 92.74 2 26 -10.99 93.02 TC 27 1001 8 254
1967 SI WA 04:00:00 TS -11.05 92.60 1000 bom 1253 1253 P_____O__PP_P_ SH281967 -10.65 92.44 -1 -11.10 92.60 1000 -11.13 92.56 TC 25 -11.15 92.61 2 25 -11.03 92.88 TC 28 1000 9 252
1967 SI WA 06:00:00 TS -11.14 92.32 1280 1280 O_____P__OP_O_ jtwc_sh SH281967 -10.80 92.10 -1 -11.24 92.33 999 -11.20 92.30 TC 20 -11.23 92.34 2 21 -11.10 92.60 TC 30 1000 9 250
1967 SI WA 07:00:00 TS -11.19 92.19 999 bom 1296 1296 P_____O__PP_P_ SH281967 -10.88 91.91 -1 -11.30 92.20 999 -11.25 92.18 TC 19 -11.27 92.20 2 20 -11.14 92.47 TC 30 999 9 250
1967 SI WA 09:00:00 TS -11.29 91.91 1324 1324 P_____P__PP_P_ SH281967 -11.04 91.48 -1 -11.37 91.93 997 -11.35 91.95 TC 17 -11.36 91.93 2 16 -11.24 92.20 TC 32 998 9 250
1967 SI WA 10:00:00 TS -11.34 91.77 997 bom 1331 1331 P_____O__PO_P_ SH281967 -11.13 91.26 -1 -11.40 91.80 997 -11.40 91.84 TC 16 -11.40 91.80 1 15 -11.29 92.07 TC 33 998 9 250
1967 SI WA 12:00:00 TS -11.44 91.49 1359 1359 O_____P__OP_O_ jtwc_sh SH281967 -11.30 90.80 -1 -11.49 91.53 996 -11.50 91.60 TC 15 -11.48 91.54 1 16 -11.40 91.80 TC 35 997 9 251
1967 SI WA 15:00:00 TS -11.58 91.06 1404 1404 P_____P__PP_P_ SH281967 -11.56 90.13 -1 -11.65 91.13 995 -11.60 91.20 TC 20 -11.59 91.17 1 19 -11.56 91.39 TC 37 996 9 251
1967 SI WA 16:00:00 TS -11.63 90.92 995 bom 1417 1417 P_____O__PP_P_ SH281967 -11.64 89.92 -1 -11.70 91.00 995 -11.63 91.06 TC 21 -11.63 91.04 1 20 -11.61 91.26 TC 38 995 9 251
1967 SI WA 18:00:00 TS -11.72 90.64 1447 1447 O_____P__OP_O_ jtwc_sh SH281967 -11.80 89.50 -1 -11.77 90.75 993 -11.70 90.80 TC 25 -11.71 90.79 1 21 -11.70 91.00 TC 40 995 8 251
1967 SI WA 21:00:00 TS -11.86 90.25 1485 1485 P_____P__PP_P_ SH281967 -12.01 88.92 -1 -11.87 90.41 992 -11.83 90.45 TC 25 -11.85 90.42 1 24 -11.80 90.64 TC 42 993 8 250
1967 SI WA 22:00:00 TS -11.91 90.13 992 bom 1499 1499 P_____O__PO_P_ SH281967 -12.08 88.74 -1 -11.90 90.30 992 -11.89 90.34 TC 25 -11.90 90.30 1 25 -11.83 90.53 TC 43 993 8 248
1967 SI MM 1967-04-08 00:00:00 TS -12.01 89.88 1522 1522 O_____P__OP_O_ jtwc_sh SH281967 -12.20 88.40 -1 -11.96 90.11 990 -12.00 90.10 TC 25 -12.01 90.05 1 22 -11.90 90.30 TC 45 992 8 248
1967 SI MM 01:00:00 TS -12.06 89.75 990 bom 1545 1545 P_____O__PP_P_ SH281967 -12.25 88.23 -1 -12.00 90.00 990 -12.06 89.97 TC 23 -12.07 89.92 1 21 -11.94 90.19 TC 45 991 8 247
1967 SI MM 03:00:00 TS -12.18 89.48 1568 1568 P_____P__PP_P_ SH281967 -12.34 87.90 -1 -12.12 89.74 988 -12.19 89.70 TC 20 -12.19 89.67 1 18 -12.03 89.96 TC 47 990 9 245
1967 SI MM 04:00:00 TS -12.24 89.35 988 bom 1582 1582 P_____O__PP_P_ SH281967 -12.39 87.75 -1 -12.20 89.60 988 -12.25 89.56 TC 18 -12.25 89.55 1 17 -12.08 89.84 TC 48 989 9 241
1967 SI MM 06:00:00 TS -12.39 89.09 1614 1614 O_____P__OP_O_ jtwc_sh SH281967 -12.50 87.50 -1 -12.40 89.33 986 -12.40 89.30 TC 15 -12.39 89.30 1 14 -12.20 89.60 TC 50 988 9 239
1967 SI MM 07:00:00 TS -12.46 88.97 986 bom 1629 1629 P_____O__PP_P_ SH281967 -12.57 87.40 -1 -12.50 89.20 986 -12.48 89.18 TC 14 -12.47 89.17 1 13 -12.27 89.47 TC 50 987 8 236
1967 SI MM 09:00:00 TS -12.62 88.73 1660 1660 P_____P__PP_P_ SH281967 -12.73 87.26 -1 -12.64 88.93 983 -12.64 88.95 TC 12 -12.62 88.92 1 11 -12.44 89.20 TC 52 985 8 235
1967 SI MM 10:00:00 TS -12.70 88.62 983 bom 1675 1675 P_____O__PO_P_ SH281967 -12.81 87.21 -1 -12.70 88.80 983 -12.73 88.84 TC 11 -12.70 88.80 1 10 -12.52 89.06 TC 53 984 8 233
1967 SI MM 12:00:00 TS -12.87 88.39 1706 1706 O_____P__OP_O_ jtwc_sh SH281967 -13.00 87.10 -1 -12.85 88.56 981 -12.90 88.60 TC 10 -12.87 88.54 1 10 -12.70 88.80 TC 55 983 8 233
1967 SI MM 15:00:00 TS -13.12 88.05 1753 1753 P_____P__PP_P_ SH281967 -13.25 86.95 -1 -13.11 88.22 978 -13.14 88.20 TC 12 -13.15 88.15 1 12 -12.94 88.45 TC 60 980 8 233
1967 SI MM 16:00:00 TS -13.21 87.93 978 bom 1768 1768 P_____O__PP_P_ SH281967 -13.35 86.89 -1 -13.20 88.10 978 -13.23 88.06 TC 13 -13.24 88.02 1 12 -13.03 88.34 TC 61 979 9 231
1967 SI MM 18:00:00 TS -13.40 87.69 1799 1799 O_____P__OP_O_ jtwc_sh SH281967 -13.60 86.70 -1 -13.40 87.84 976 -13.40 87.80 TC 15 -13.43 87.77 1 13 -13.20 88.10 TC 65 978 9 231
1967 SI MM 19:00:00 TS -13.51 87.56 976 bom 1815 1815 P_____O__PP_P_ SH281967 -13.76 86.56 -1 -13.50 87.70 976 -13.50 87.68 TC 15 -13.53 87.65 1 13 -13.30 87.96 TC 65 977 10 229
1967 SI MM 21:00:00 TS -13.73 87.29 1854 1854 P_____P__PP_P_ SH281967 -14.15 86.21 -1 -13.71 87.43 973 -13.71 87.44 TC 15 -13.71 87.41 1 14 -13.51 87.69 TC 67 975 10 229
1967 SI MM 22:00:00 TS -13.85 87.16 973 bom 1869 1869 P_____O__PO_P_ SH281967 -14.36 86.01 -1 -13.80 87.30 973 -13.81 87.32 TC 15 -13.80 87.30 1 15 -13.61 87.55 TC 68 974 10 229
1967 SI MM 1967-04-09 00:00:00 TS -14.06 86.91 1916 1916 O_____P__OP_O_ jtwc_sh SH281967 -14.80 85.60 -1 -13.94 87.09 970 -14.00 87.10 TC 15 -13.96 87.09 1 15 -13.80 87.30 TC 70 973 9 229
1967 SI MM 01:00:00 TS -14.15 86.80 970 bom 1931 1931 P_____O__PP_P_ SH281967 -15.03 85.39 -1 -14.00 87.00 970 -14.08 86.99 TC 15 -14.03 86.99 1 16 -13.88 87.20 TC 70 972 9 229
1967 SI MM 03:00:00 TS -14.34 86.58 1954 1954 P_____P__PP_P_ SH281967 -15.49 84.97 -1 -14.13 86.87 970 -14.21 86.78 TC 17 -14.18 86.80 1 17 -14.01 87.03 TC 72 972 8 228
1967 SI MM 04:00:00 TS -14.43 86.48 971 bom 1970 1970 P_____O__PP_P_ SH281967 -15.71 84.77 -1 -14.20 86.80 971 -14.27 86.69 TC 18 -14.25 86.71 1 17 -14.07 86.96 TC 73 971 8 227
1967 SI MM 06:00:00 TS -14.61 86.28 2001 2001 O_____P__OP_O_ jtwc_sh SH281967 -16.10 84.40 -1 -14.40 86.61 972 -14.40 86.50 TC 20 -14.39 86.54 1 18 -14.20 86.80 TC 75 971 8 227
1967 SI MM 07:00:00 TS -14.71 86.18 973 bom 2017 2017 P_____O__PP_P_ SH281967 -16.26 84.25 -1 -14.50 86.50 973 -14.48 86.41 TC 20 -14.47 86.45 1 18 -14.28 86.70 TC 74 971 8 227
1967 SI MM 09:00:00 TS -14.88 85.99 2048 2048 P_____P__PP_P_ SH281967 -16.52 84.00 -1 -14.64 86.30 974 -14.64 86.24 TC 20 -14.62 86.28 1 19 -14.44 86.50 TC 72 973 8 227
1967 SI MM 10:00:00 TS -14.96 85.90 975 bom 2063 2063 P_____O__PO_P_ SH281967 -16.62 83.89 -1 -14.70 86.20 975 -14.73 86.16 TC 20 -14.70 86.20 1 20 -14.53 86.40 TC 71 973 7 226
1967 SI MM 12:00:00 TS -15.13 85.72 2086 2086 O_____P__OP_O_ jtwc_sh SH281967 -16.80 83.70 -1 -14.85 86.02 976 -14.90 86.00 TC 20 -14.87 86.01 1 20 -14.70 86.20 TC 70 975 7 226
1967 SI MM 15:00:00 TS -15.38 85.46 2125 2125 P_____P__PP_P_ SH281967 -17.04 83.41 -1 -15.11 85.77 978 -15.14 85.74 TC 20 -15.14 85.72 1 20 -14.94 85.94 TC 67 977 7 225
1967 SI MM 16:00:00 TS -15.46 85.37 979 bom 2141 2141 P_____O__PP_P_ SH281967 -17.11 83.33 -1 -15.20 85.70 979 -15.23 85.66 TC 20 -15.23 85.63 1 20 -15.03 85.86 TC 66 977 7 222
1967 SI MM 18:00:00 TS -15.63 85.22 2164 2164 O_____P__OP_O_ jtwc_sh SH281967 -17.20 83.20 -1 -15.40 85.57 980 -15.40 85.50 TC 20 -15.41 85.46 1 20 -15.20 85.70 TC 65 979 7 222
1967 SI MM 19:00:00 TS -15.72 85.14 981 bom 2179 2179 P_____O__PP_P_ SH281967 -17.23 83.14 -1 -15.50 85.50 981 -15.49 85.42 TC 20 -15.51 85.39 1 20 -15.30 85.61 TC 63 979 7 221
1967 SI MM 21:00:00 TS -15.89 84.99 2203 2203 P_____P__PP_P_ SH281967 -17.26 83.06 -1 -15.71 85.30 982 -15.69 85.27 TC 20 -15.70 85.26 1 20 -15.50 85.43 TC 60 981 7 221
1967 SI MM 22:00:00 TS -15.97 84.92 983 bom 2218 2218 P_____O__PO_P_ SH281967 -17.28 83.03 -1 -15.80 85.20 983 -15.79 85.20 TC 20 -15.80 85.20 1 20 -15.60 85.34 TC 58 981 6 215
1967 SI MM 1967-04-10 00:00:00 TS -16.13 84.81 2234 2234 O_____P__OP_O_ jtwc_sh SH281967 -17.30 83.00 -1 -15.93 85.05 984 -16.00 85.10 TC 20 -15.98 85.12 1 23 -15.80 85.20 TC 55 983 6 210
1967 SI MM 01:00:00 TS -16.21 84.77 985 bom 2241 2241 P_____O__PP_P_ SH281967 -17.31 82.99 -1 -16.00 85.00 985 -16.10 85.06 TC 22 -16.08 85.08 1 25 -15.88 85.14 TC 55 983 5 196
1967 SI MM 03:00:00 TS -16.37 84.73 2265 2265 P_____P__PP_P_ SH281967 -17.33 82.98 -1 -16.19 84.99 985 -16.30 85.02 TC 27 -16.27 85.04 1 28 -16.04 85.06 TC 55 984 5 188
1967 SI MM 04:00:00 TS -16.46 84.72 985 bom 2273 2273 P_____O__PP_P_ SH281967 -17.36 82.99 -1 -16.30 85.00 985 -16.40 85.01 TC 29 -16.36 85.02 1 30 -16.12 85.03 TC 55 984 6 181
1967 SI MM 06:00:00 TS -16.65 84.72 2289 2289 O_____P__OP_O_ jtwc_sh SH281967 -17.50 83.00 -1 -16.49 85.00 985 -16.60 85.00 TC 35 -16.56 85.01 1 33 -16.30 85.00 TC 55 985 6 0
1967 SI MM 07:00:00 TS -16.76 84.71 985 bom 2297 2297 P_____O__PP_P_ SH281967 -17.62 82.99 -1 -16.60 85.00 985 -16.69 84.99 TC 35 -16.67 85.00 1 35 -16.40 84.99 TC 55 985 7 0
1967 SI MM 09:00:00 TS -16.99 84.70 2313 2313 P_____P__PP_P_ SH281967 -17.93 82.97 -1 -16.86 85.00 985 -16.88 84.99 TC 37 -16.89 85.00 1 38 -16.63 84.98 TC 55 985 7 183
1967 SI MM 10:00:00 TS -17.12 84.70 985 bom 2321 2321 P_____O__PO_P_ SH281967 -18.12 82.97 -1 -17.00 85.00 985 -16.98 84.99 TC 38 -17.00 85.00 2 40 -16.75 84.99 TC 55 985 8 182
1967 SI MM 12:00:00 TS -17.38 84.70 2345 2345 O_____P__OP_O_ jtwc_sh SH281967 -18.50 83.00 -1 -17.27 85.00 985 -17.20 85.00 TC 40 -17.25 84.96 2 37 -17.00 85.00 TC 55 985 9 178
1967 SI MM 15:00:00 TS -17.82 84.71 2378 2378 P_____P__PP_P_ SH281967 -19.08 83.14 -1 -17.67 85.00 985 -17.64 84.99 TC 35 -17.65 84.92 2 33 -17.39 85.00 TC 55 985 9 177
1967 SI MM 18:00:00 TS -18.26 84.76 2413 2413 O_____P__OP_O_ jtwc_sh SH281967 -19.60 83.40 -1 -18.07 85.00 985 -18.10 85.00 TC 30 -18.06 84.91 2 29 -17.80 85.00 TC 55 985 9 173
1967 SI MM 19:00:00 TS -18.39 84.78 985 bom 2421 2421 P_____O__PP_P_ SH281967 -19.73 83.51 -1 -18.20 85.00 985 -18.23 85.00 TC 29 -18.20 84.92 2 28 -17.94 84.99 TC 55 985 8 169
1967 SI MM 21:00:00 TS -18.64 84.83 2438 2438 P_____P__PP_P_ SH281967 -19.94 83.76 -1 -18.47 84.99 985 -18.46 85.01 TC 27 -18.47 84.96 2 26 -18.21 84.98 TC 55 985 8 167
1967 SI MM 22:00:00 TS -18.76 84.87 985 bom 2449 2449 P_____O__PO_P_ SH281967 -20.03 83.90 -1 -18.60 85.00 985 -18.58 85.03 TC 26 -18.60 85.00 1 25 -18.34 84.98 TC 55 985 8 159
1967 SI MM 1967-04-11 00:00:00 TS -18.99 84.97 2459 2459 O_____P__OP_O_ jtwc_sh SH281967 -20.20 84.20 -1 -18.84 85.05 985 -18.80 85.10 TC 25 -18.84 85.09 1 25 -18.60 85.00 TC 55 985 8 152
1967 SI MM 03:00:00 TS -19.33 85.20 2472 2472 P_____P__PP_P_ SH281967 -20.46 84.65 -1 -19.19 85.22 985 -19.15 85.31 TC 25 -19.19 85.30 1 25 -18.95 85.09 TC 55 985 8 147
1967 SI MM 04:00:00 TS -19.44 85.29 985 bom 2474 2474 P_____O__PP_P_ SH281967 -20.55 84.80 -1 -19.30 85.30 985 -19.27 85.40 TC 25 -19.30 85.38 1 25 -19.06 85.14 TC 55 985 9 142
1967 SI MM 06:00:00 TS -19.68 85.48 2487 2487 O_____P__OP_O_ jtwc_sh SH281967 -20.80 85.10 -1 -19.54 85.48 985 -19.50 85.60 TC 25 -19.53 85.57 1 25 -19.30 85.30 TC 55 985 10 141
1967 SI MM 09:00:00 TS -20.07 85.82 2504 2498 P_____P__PP_P_ SH281967 -21.35 85.51 -1 -19.91 85.83 985 -19.84 85.89 TC 27 -19.88 85.88 1 25 -19.70 85.67 TC 55 985 10 141
1967 SI MM 10:00:00 TS -20.21 85.94 2507 2501 P_____P__PO_P_ SH281967 -21.57 85.65 -1 -20.03 85.96 985 -19.96 85.99 TC 28 -20.00 86.00 1 25 -19.84 85.81 TC 55 985 11 141
1967 SI MM 12:00:00 TS -20.48 86.17 2516 2516 O_____P__OP_O_ jtwc_sh SH281967 -22.00 85.90 -1 -20.28 86.24 985 -20.20 86.20 TC 30 -20.23 86.17 1 29 -20.10 86.10 TC 55 986 10 143
1967 SI MM 15:00:00 TS -20.89 86.49 2536 2536 P_____P__PP_P_ SH281967 -22.67 86.26 -1 -20.67 86.66 985 -20.58 86.45 TC 37 -20.58 86.45 1 35 -20.45 86.45 TC 55 986 10 143
1967 SI MM 16:00:00 TS -21.03 86.61 986 bom 2539 2539 P_____O__PP_P_ SH281967 -22.87 86.38 -1 -20.80 86.80 986 -20.72 86.55 TC 39 -20.71 86.57 1 37 -20.56 86.56 TC 55 986 11 140
1967 SI MM 18:00:00 TS -21.31 86.86 2551 2549 O_____P__OP_O_ jtwc_sh SH281967 -23.20 86.60 -1 -21.07 87.07 986 -21.00 86.80 TC 45 -20.97 86.84 1 41 -20.80 86.80 TC 55 986 11 138
1967 SI MM 19:00:00 TS -21.43 86.99 986 bom 2549 2545 P_____O__PP_P_ SH281967 -23.30 86.71 -1 -21.20 87.20 986 -21.13 86.96 TC 45 -21.12 86.99 1 43 -20.92 86.91 TC 55 986 11 134
1967 SI MM 21:00:00 TS -21.68 87.28 2545 2537 P_____P__PP_P_ SH281967 -23.42 86.91 -1 -21.47 87.47 986 -21.41 87.34 TC 47 -21.43 87.37 1 47 -21.17 87.13 TC 55 986 11 131
1967 SI MM 22:00:00 TS -21.81 87.45 986 bom 2544 2526 P_____O__PO_P_ SH281967 -23.45 87.01 -1 -21.60 87.60 986 -21.56 87.57 TC 48 -21.60 87.60 2 50 -21.30 87.27 TC 55 986 13 128
1967 SI MM 1967-04-12 00:00:00 TS -22.09 87.83 2533 2525 O_____P__OP_O_ jtwc_sh SH281967 -23.50 87.20 -1 -21.84 87.80 986 -21.90 88.10 TC 50 -21.97 88.14 2 44 -21.60 87.60 TC 55 986 15 127
1967 SI MM 01:00:00 TS -22.25 88.07 987 bom 2517 2508 P_____O__PP_P_ SH281967 -23.54 87.29 -1 -22.00 88.00 987 -22.09 88.40 TC 46 -22.16 88.44 2 42 -21.76 87.80 TC 54 986 18 125
1967 SI MM 03:00:00 TS -22.61 88.65 2500 2491 P_____P__PP_P_ SH281967 -23.63 87.48 -1 -22.44 88.76 987 -22.50 89.07 TC 40 -22.58 89.10 2 37 -22.10 88.27 TC 52 987 20 124
1967 SI MM 04:00:00 TS -22.81 88.98 988 bom 2481 2412 P_____O__PP_P_ SH281967 -23.68 87.58 -1 -22.70 89.20 988 -22.73 89.43 TC 36 -22.80 89.46 2 35 -22.28 88.55 TC 51 987 22 124
1967 SI MM 06:00:00 TS -23.23 89.66 2402 2377 O_____P__OP_O_ jtwc_sh SH281967 -23.80 87.80 -1 -23.24 89.98 988 -23.20 90.20 TC 30 -23.25 90.21 2 29 -22.70 89.20 TC 50 988 23 124
1967 SI WA 07:00:00 TS -23.44 90.01 989 bom 2367 2288 P_____O__PP_P_ SH281967 -23.87 87.92 -1 -23.50 90.40 989 -23.44 90.58 TC 28 -23.48 90.60 2 27 -22.93 89.58 TC 49 988 24 123
1967 SI WA 09:00:00 TS -23.88 90.75 2276 2242 P_____P__PP_P_ SH281967 -24.02 88.20 -1 -23.97 91.33 989 -23.93 91.38 TC 25 -23.96 91.40 2 22 -23.42 90.45 TC 47 989 25 123
1967 SI WA 10:00:00 TS -24.10 91.14 990 bom 2242 2164 P_____O__PO_P_ SH281967 -24.11 88.35 -1 -24.20 91.80 990 -24.19 91.78 TC 23 -24.20 91.80 1 20 -23.68 90.90 TC 46 989 25 123
1967 SI WA 12:00:00 TS -24.56 91.89 2152 2033 O_____P__OP_O_ jtwc_sh SH281967 -24.30 88.70 -1 -24.68 92.61 990 -24.70 92.60 TC 20 -24.68 92.56 1 19 -24.20 91.80 TC 45 990 26 123
1967 SI WA 15:00:00 TS -25.28 93.13 2021 1969 P_____P__PP_P_ SH281967 -24.47 88.88 -1 -25.44 93.72 991 -25.45 93.80 TC 17 -25.43 93.75 1 17 -24.95 92.96 TC 45 991 28 122
1967 SI WA 16:00:00 TS -25.55 93.66 992 bom 1959 1873 P_____O__PP_P_ SH281967 -24.58 89.08 -1 -25.70 94.10 992 -25.70 94.20 TC 16 -25.68 94.15 1 17 -25.20 93.34 TC 45 991 31 121
1967 SI WA 18:00:00 TS -26.08 94.62 1862 1811 O_____P__OP_O_ jtwc_sh SH281967 -25.00 90.00 -1 -26.24 94.89 992 -26.20 95.00 TC 15 -26.19 94.96 1 16 -25.70 94.10 TC 45 992 33 121
1967 SI WA 19:00:00 TS -26.38 95.22 993 bom 1800 1718 P_____O__PP_P_ SH281967 -25.39 91.00 -1 -26.50 95.30 993 -26.45 95.40 TC 15 -26.45 95.37 1 16 -25.95 94.50 TC 44 992 30 122
1967 SI WA 21:00:00 TS -26.87 96.04 1718 1678 P_____P__PP_P_ SH281967 -26.34 93.58 -1 -26.96 96.15 993 -26.96 96.19 TC 15 -26.95 96.19 1 15 -26.46 95.33 TC 42 993 27 124
1967 SI WA 22:00:00 TS -27.12 96.46 994 bom 1668 1599 P_____O__PO_P_ SH281967 -26.83 94.96 -1 -27.20 96.60 994 -27.21 96.59 TC 15 -27.20 96.60 1 15 -26.71 95.75 TC 41 993 27 124
1967 SI WA 1967-04-13 00:00:00 TS -27.62 97.31 1589 1551 O_____P__OP_O_ jtwc_sh SH291967 -27.70 97.40 15 -1 -27.74 97.54 994 -27.70 97.40 TC 15 -27.69 97.43 1 18 -27.20 96.60 TC 40 994 27 123
1967 SI WA 01:00:00 TS -27.87 97.74 995 bom 1551 1476 P_____O__PP_P_ SH291967 -28.00 98.11 17 -1 -28.00 98.00 995 -27.94 97.81 TC 17 -27.93 97.84 1 20 -27.44 97.04 TC 40 994 26 122
1967 SI WA 03:00:00 TS -28.33 98.58 1467 1440 P_____P__PP_P_ SH291967 -28.49 99.04 22 -1 -28.40 98.81 995 -28.41 98.65 TC 22 -28.41 98.67 1 23 -27.91 97.92 TC 40 994 26 122
1967 SI WA 04:00:00 TS -28.55 98.99 995 bom 1431 1361 P_____O__PP_P_ SH291967 -28.70 99.35 24 -1 -28.60 99.20 995 -28.65 99.07 TC 24 -28.64 99.08 1 25 -28.14 98.35 TC 40 994 26 122
1967 SI WA 06:00:00 TS -29.01 99.82 1361 1326 O_____P__OP_O_ jtwc_sh SH291967 -29.10 99.90 30 -1 -29.06 100.01 995 -29.10 99.90 TC 30 -29.11 99.90 1 28 -28.60 99.20 TC 40 995 26 123
1967 SI WA 07:00:00 TS -29.24 100.22 995 bom 1326 1270 P_____O__PP_P_ SH291967 -29.32 100.31 30 -1 -29.30 100.40 995 -29.32 100.31 TC 30 -29.34 100.31 1 30 -28.84 99.60 TC 40 995 25 123
1967 SI WA 09:00:00 TS -29.69 101.01 1263 1238 P_____P__PP_P_ SH291967 -29.76 101.13 32 -1 -29.77 101.14 995 -29.76 101.13 TC 32 -29.78 101.11 1 33 -29.31 100.38 TC 40 995 24 123
1967 SI WA 10:00:00 TS -29.91 101.39 995 bom 1232 1182 P_____O__PO_P_ SH291967 -29.98 101.53 33 -1 -30.00 101.50 995 -29.98 101.53 TC 33 -30.00 101.50 2 35 -29.55 100.76 TC 40 995 23 123
1967 SI WA 12:00:00 TS -30.34 102.14 1182 1107 O_____P__OP_O_ jtwc_sh SH291967 -30.40 102.30 35 0 -30.42 102.23 995 -30.40 102.30 TC 35 -30.41 102.24 2 33 -30.00 101.50 TC 40 995 23 123
1967 SI WA 15:00:00 TS -30.94 103.21 1107 1085 P_____P__PP_P_ SH291967 -31.01 103.35 30 -1 -31.01 103.33 995 -31.01 103.35 TC 30 -31.01 103.31 2 30 -30.61 102.61 TC 40 995 22 123
1967 SI WA 16:00:00 TS -31.14 103.57 995 bom 1076 1035 P_____O__PP_P_ SH291967 -31.20 103.69 28 -1 -31.20 103.70 995 -31.20 103.69 TC 28 -31.20 103.66 2 30 -30.81 102.97 TC 40 995 22 123
1967 SI WA 18:00:00 TS -31.53 104.29 1026 994 O_____P__OP_O_ jtwc_sh SH291967 -31.60 104.40 25 -1 -31.60 104.43 995 -31.60 104.40 TC 25 -31.60 104.38 2 28 -31.20 103.70 TC 40 995 22 123
1967 SI WA 19:00:00 TS -31.73 104.65 995 bom 985 919 P_____O__PP_P_ SH291967 -31.80 104.78 25 -1 -31.80 104.80 995 -31.80 104.78 TC 25 -31.79 104.74 2 27 -31.40 104.06 TC 40 995 22 122
1967 SI WA 21:00:00 TS -32.13 105.40 910 877 P_____P__PP_P_ SH291967 -32.19 105.56 25 -1 -32.20 105.53 995 -32.19 105.56 TC 25 -32.19 105.50 2 25 -31.79 104.77 TC 40 995 23 122
1967 SI WA 22:00:00 TS -32.33 105.78 995 bom 868 795 P_____O__PO_P_ SH291967 -32.39 105.96 25 -1 -32.40 105.90 995 -32.39 105.96 TC 25 -32.40 105.90 1 25 -31.99 105.14 TC 40 995 23 121
1967 SI WA 1967-04-14 00:00:00 TS -32.74 106.58 786 755 O_____P__OP_O_ jtwc_sh SH291967 -32.80 106.80 25 -1 -32.79 106.60 995 -32.80 106.80 TC 25 -32.83 106.76 1 26 -32.40 105.90 TC 40 995 24 121
1967 SI WA 01:00:00 TS -32.95 107.00 995 bom 746 666 P_____O__PP_P_ SH291967 -33.01 107.23 25 -1 -33.00 107.00 995 -33.01 107.23 TC 25 -33.04 107.20 1 27 -32.61 106.30 TC 40 995 26 120
1967 SI WA 03:00:00 TS -33.39 107.91 657 618 P_____P__PP_P_ SH291967 -33.44 108.11 27 -1 -33.46 107.98 995 -33.44 108.11 TC 27 -33.48 108.12 1 29 -33.04 107.14 TC 40 995 27 120
1967 SI WA 04:00:00 TS -33.62 108.38 995 bom 609 524 P_____O__PP_P_ SH291967 -33.66 108.56 28 -1 -33.70 108.50 995 -33.66 108.56 TC 28 -33.70 108.58 1 30 -33.26 107.58 TC 40 995 27 119
1967 SI WA 06:00:00 TS -34.07 109.34 523 486 O_____P__OP_O_ jtwc_sh SH291967 -34.10 109.50 30 -1 -34.17 109.50 995 -34.10 109.50 TC 30 -34.14 109.54 1 31 -33.70 108.50 TC 40 995 27 119
1967 SI WA 07:00:00 TS -34.29 109.83 996 bom 477 397 P_____O__PP_P_ SH291967 -34.32 109.98 30 -1 -34.40 110.00 996 -34.32 109.98 TC 30 -34.35 110.03 1 32 -33.92 108.98 TC 39 995 28 118
1967 SI WA 09:00:00 TS -34.72 110.82 390 358 P_____P__PP_P_ SH291967 -34.76 110.98 32 -1 -34.81 111.00 996 -34.76 110.98 TC 32 -34.79 111.01 1 34 -34.36 109.97 TC 37 995 28 117
1967 SI WA 10:00:00 TS -34.93 111.32 996 bom 349 282 P_____O__PO_P_ SH291967 -34.97 111.49 33 -1 -35.00 111.50 996 -34.97 111.49 TC 33 -35.00 111.50 2 35 -34.57 110.48 TC 36 995 28 117
1967 SI WA 12:00:00 TS -35.34 112.33 273 207 O_____P__OP_O_ jtwc_sh SH291967 -35.40 112.50 35 0 -35.40 112.50 996 -35.40 112.50 TC 35 -35.42 112.49 2 35 -35.00 111.50 TC 35 996 27 117
1967 SI WA 15:00:00 TS -35.94 113.81 204 200 P_____P__PP_P_ SH291967 -36.01 114.00 35 0 -36.00 114.00 996 -36.01 114.00 TC 35 -36.04 113.97 2 35 -35.61 113.00 TC 35 996 27 116
1967 SI WA 16:00:00 TS -36.13 114.30 996 bom 202 199 P_____O__PP_P_ SH291967 -36.21 114.50 35 0 -36.20 114.50 996 -36.21 114.50 TC 35 -36.24 114.47 2 35 -35.80 113.50 TC 35 996 26 116
1967 SI WA 18:00:00 TS -36.52 115.27 194 189 O_____P__OP_O_ jtwc_sh SH291967 -36.60 115.50 35 0 -36.60 115.50 996 -36.60 115.50 TC 35 -36.63 115.47 2 35 -36.20 114.50 TC 35 996 26 116
1967 SI WA 19:00:00 TS -36.70 115.73 996 bom 195 192 ______O___P_P_ SH291967 -1 -36.80 116.00 996 TC -36.83 115.98 2 35 -36.40 115.00 TC 35 996 26 116
1967 SI WA 21:00:00 TS -37.10 116.75 223 223 ______P___P_P_ SH291967 -1 -37.20 117.00 996 TC -37.21 116.99 2 35 -36.80 115.99 TC 35 996 27 116
1967 SI WA 22:00:00 TS -37.30 117.25 997 bom 246 246 ______O___O_P_ SH291967 -1 -37.40 117.50 997 TC -37.40 117.50 2 35 -37.00 116.49 TC 35 996 27 117
1967 SI WA 1967-04-15 00:00:00 TS -37.70 118.25 290 290 ______P_____O_ -1 -37.80 118.50 997 2 -37.40 117.50 TC 35 997 31 117
1967 SI WA 01:00:00 NR -38.00 119.00 997 bom 335 ______O_______ -1 -38.00 119.00 997 2 TC 40 117